Time;durP1;ratioP1;P1;durP2;ratioP2;P2;SDS_P1;SDS_P2;PMS_P1;PMS_P2;Temp;Humidity;BMP_temperature;BMP_pressure;BME280_temperature;BME280_humidity;BME280_pressure;Samples;Min_cycle;Max_cycle;Signal;HPM_P1;HPM_P2
2023/11/24 00:02:01;;;;;;;12.15;1.50;;;5.50;99.90;;;;;;5041220;28;20051;-58
2023/11/24 00:04:27;;;;;;;5.22;1.33;;;5.50;99.90;;;;;;5038069;28;20494;-58
2023/11/24 00:06:54;;;;;;;7.13;1.67;;;5.40;99.90;;;;;;5041126;28;20048;-57
2023/11/24 00:09:19;;;;;;;4.15;1.40;;;5.40;99.90;;;;;;5043855;28;20022;-57
2023/11/24 00:11:46;;;;;;;2.72;1.23;;;5.40;99.90;;;;;;5040531;28;20054;-57
2023/11/24 00:14:12;;;;;;;3.85;1.27;;;5.40;99.90;;;;;;5042124;28;20029;-52
2023/11/24 00:16:38;;;;;;;6.32;1.42;;;5.40;99.90;;;;;;5042722;28;20033;-58
2023/11/24 00:19:05;;;;;;;9.20;1.60;;;5.40;99.90;;;;;;5040318;28;20400;-57
2023/11/24 00:21:32;;;;;;;8.40;1.50;;;5.30;99.90;;;;;;5042139;28;20056;-56
2023/11/24 00:23:59;;;;;;;3.90;1.02;;;5.30;99.90;;;;;;5041765;28;20047;-57
2023/11/24 00:26:26;;;;;;;6.18;1.05;;;5.30;99.90;;;;;;5041597;28;22388;-56
2023/11/24 00:28:54;;;;;;;5.93;1.65;;;5.30;99.90;;;;;;5043912;28;20017;-57
2023/11/24 00:31:19;;;;;;;4.35;0.90;;;5.30;99.90;;;;;;5023380;28;20094;-58
2023/11/24 00:33:47;;;;;;;9.32;1.90;;;5.20;99.90;;;;;;5042544;28;20481;-58
2023/11/24 00:36:12;;;;;;;3.03;1.00;;;5.20;99.90;;;;;;5039756;28;20490;-57
2023/11/24 00:38:38;;;;;;;6.22;1.35;;;5.10;99.90;;;;;;5041398;28;20033;-58
2023/11/24 00:41:03;;;;;;;2.13;0.95;;;5.10;99.90;;;;;;5040385;28;20061;-57
2023/11/24 00:43:29;;;;;;;5.00;1.00;;;5.10;99.90;;;;;;5042484;28;20107;-58
2023/11/24 00:45:54;;;;;;;3.80;0.82;;;5.00;99.90;;;;;;5043551;28;20108;-57
2023/11/24 00:48:21;;;;;;;5.65;1.02;;;5.10;99.90;;;;;;5046512;28;20116;-58
2023/11/24 00:50:47;;;;;;;1.67;0.68;;;5.00;99.90;;;;;;5046169;28;20029;-58
2023/11/24 00:53:12;;;;;;;1.83;0.55;;;5.00;99.90;;;;;;5044341;28;20040;-59
2023/11/24 00:55:38;;;;;;;2.50;0.90;;;4.90;99.90;;;;;;5045585;28;20132;-56
2023/11/24 00:58:04;;;;;;;4.25;1.30;;;4.90;99.90;;;;;;5045807;28;20048;-54
2023/11/24 01:00:29;;;;;;;5.53;0.82;;;4.90;99.90;;;;;;5043692;28;20116;-58
2023/11/24 01:02:55;;;;;;;8.20;1.33;;;4.90;99.90;;;;;;5040507;28;20049;-58
2023/11/24 01:05:21;;;;;;;4.13;1.00;;;4.90;99.90;;;;;;5046163;28;20043;-57
2023/11/24 01:07:47;;;;;;;5.75;1.25;;;4.90;99.90;;;;;;5045545;28;20056;-58
2023/11/24 01:10:13;;;;;;;6.72;1.63;;;4.90;99.90;;;;;;5045308;28;20064;-58
2023/11/24 01:12:38;;;;;;;5.95;1.45;;;4.80;99.90;;;;;;5045395;28;20037;-57
2023/11/24 01:15:08;;;;;;;5.00;1.17;;;4.80;99.90;;;;;;5043539;28;20041;-55
2023/11/24 01:17:35;;;;;;;5.30;1.10;;;4.80;99.90;;;;;;5046028;28;20045;-56
2023/11/24 01:20:00;;;;;;;4.50;1.10;;;4.70;99.90;;;;;;5044856;28;20021;-57
2023/11/24 01:22:26;;;;;;;5.20;1.17;;;4.70;99.90;;;;;;5045715;28;20024;-57
2023/11/24 01:24:51;;;;;;;11.43;1.67;;;4.70;99.90;;;;;;5043894;28;20024;-55
2023/11/24 01:27:18;;;;;;;8.88;1.50;;;4.70;99.90;;;;;;5027999;28;20093;-58
2023/11/24 01:29:44;;;;;;;7.95;1.50;;;4.70;99.90;;;;;;5043762;28;20069;-59
2023/11/24 01:32:09;;;;;;;5.40;1.25;;;4.80;99.90;;;;;;5043952;28;20067;-58
2023/11/24 01:34:35;;;;;;;3.45;0.47;;;4.70;99.90;;;;;;5029598;28;20432;-60
2023/11/24 01:37:01;;;;;;;2.90;0.65;;;4.60;99.90;;;;;;5042352;28;20036;-59
2023/11/24 01:39:27;;;;;;;5.65;0.90;;;4.50;99.90;;;;;;5037215;28;20030;-58
2023/11/24 01:41:52;;;;;;;4.07;0.70;;;4.40;99.90;;;;;;5043505;28;20175;-59
2023/11/24 01:44:20;;;;;;;2.40;0.43;;;4.40;99.90;;;;;;5041571;28;20037;-59
2023/11/24 01:46:45;;;;;;;4.88;0.50;;;4.30;99.90;;;;;;5043271;28;20032;-57
2023/11/24 01:49:11;;;;;;;3.33;0.63;;;4.30;99.90;;;;;;5044308;28;20036;-59
2023/11/24 01:51:38;;;;;;;1.80;0.90;;;4.20;99.90;;;;;;5044100;28;20044;-59
2023/11/24 01:54:04;;;;;;;2.83;0.77;;;4.20;99.90;;;;;;5023913;28;20111;-58
2023/11/24 01:56:30;;;;;;;2.63;0.95;;;4.20;99.90;;;;;;5045041;28;20434;-57
2023/11/24 01:58:57;;;;;;;3.70;0.70;;;4.20;99.90;;;;;;5042947;28;20481;-59
2023/11/24 02:01:24;;;;;;;4.53;0.50;;;4.20;99.90;;;;;;5026676;28;20037;-58
2023/11/24 02:03:50;;;;;;;3.08;1.02;;;4.30;99.90;;;;;;5031343;28;20036;-59
2023/11/24 02:06:16;;;;;;;3.97;0.60;;;4.20;99.90;;;;;;5041419;28;20040;-59
2023/11/24 02:08:42;;;;;;;4.55;1.08;;;4.20;99.90;;;;;;5042270;28;20030;-59
2023/11/24 02:11:08;;;;;;;3.70;1.17;;;4.20;99.90;;;;;;5026743;28;20037;-58
2023/11/24 02:13:34;;;;;;;4.07;1.02;;;4.20;99.90;;;;;;5043050;28;20025;-56
2023/11/24 02:15:59;;;;;;;4.05;1.10;;;4.20;99.90;;;;;;5046570;28;20550;-55
2023/11/24 02:18:25;;;;;;;9.35;1.40;;;4.20;99.90;;;;;;5044194;28;20029;-58
2023/11/24 02:20:50;;;;;;;8.30;1.30;;;4.10;99.90;;;;;;5042634;28;20476;-60
2023/11/24 02:23:16;;;;;;;3.88;0.80;;;4.20;99.90;;;;;;5039491;28;20036;-57
2023/11/24 02:25:42;;;;;;;3.85;0.88;;;4.10;99.90;;;;;;5026855;28;20118;-56
2023/11/24 02:28:08;;;;;;;2.55;0.82;;;4.10;99.90;;;;;;5047409;28;20049;-57
2023/11/24 02:30:34;;;;;;;3.72;1.15;;;4.10;99.90;;;;;;5040733;28;20025;-57
2023/11/24 02:32:59;;;;;;;5.63;0.80;;;4.10;99.90;;;;;;5043287;28;20033;-56
2023/11/24 02:35:28;;;;;;;2.47;0.98;;;4.10;99.90;;;;;;5041204;28;20033;-58
2023/11/24 02:37:55;;;;;;;2.80;0.73;;;4.10;99.90;;;;;;5046285;28;20420;-58
2023/11/24 02:40:20;;;;;;;2.15;0.73;;;4.10;99.90;;;;;;5044802;28;20025;-59
2023/11/24 02:42:46;;;;;;;4.22;0.68;;;4.20;99.90;;;;;;5042323;28;20033;-59
2023/11/24 02:45:12;;;;;;;6.95;1.05;;;4.20;99.90;;;;;;5043590;28;20036;-56
2023/11/24 02:47:37;;;;;;;4.93;0.80;;;4.20;99.90;;;;;;5045557;28;20025;-57
2023/11/24 02:50:03;;;;;;;0.90;0.82;;;4.20;99.90;;;;;;5043880;28;20044;-57
2023/11/24 02:52:29;;;;;;;4.70;0.70;;;4.20;99.90;;;;;;5047618;28;20028;-58
2023/11/24 02:54:55;;;;;;;4.60;0.90;;;4.20;99.90;;;;;;5041630;28;20414;-61
2023/11/24 02:57:21;;;;;;;7.90;0.90;;;4.20;99.90;;;;;;5046093;28;20025;-59
2023/11/24 02:59:46;;;;;;;10.07;0.85;;;4.20;99.90;;;;;;5042468;28;20132;-58
2023/11/24 03:02:12;;;;;;;3.55;1.10;;;4.20;99.90;;;;;;5027468;28;20539;-58
2023/11/24 03:04:37;;;;;;;4.47;0.95;;;4.20;99.90;;;;;;5041180;28;20078;-58
2023/11/24 03:07:04;;;;;;;5.03;1.10;;;4.20;99.90;;;;;;5028156;28;20029;-56
2023/11/24 03:09:31;;;;;;;7.35;0.85;;;4.10;99.90;;;;;;5040722;28;20033;-55
2023/11/24 03:11:57;;;;;;;6.45;0.77;;;4.10;99.90;;;;;;5045229;28;20082;-59
2023/11/24 03:14:23;;;;;;;3.15;0.80;;;4.20;99.90;;;;;;5042068;28;20076;-59
2023/11/24 03:16:51;;;;;;;4.10;0.95;;;4.20;99.90;;;;;;5041824;28;20064;-59
2023/11/24 03:19:16;;;;;;;3.55;1.08;;;4.20;99.90;;;;;;5025804;28;20028;-59
2023/11/24 03:21:44;;;;;;;5.53;1.42;;;4.20;99.90;;;;;;5041541;28;20025;-58
2023/11/24 03:24:09;;;;;;;4.60;0.95;;;4.20;99.90;;;;;;5040946;28;20435;-61
2023/11/24 03:26:36;;;;;;;6.07;1.70;;;4.20;99.90;;;;;;5041189;28;20033;-59
2023/11/24 03:29:02;;;;;;;8.02;1.35;;;4.20;99.90;;;;;;5041851;28;20021;-58
2023/11/24 03:31:28;;;;;;;4.03;1.08;;;4.20;99.90;;;;;;5036187;28;20114;-60
2023/11/24 03:33:54;;;;;;;5.57;1.20;;;4.20;99.90;;;;;;5043939;28;20043;-60
2023/11/24 03:36:20;;;;;;;8.73;2.00;;;4.20;99.90;;;;;;5045674;28;20495;-60
2023/11/24 03:38:45;;;;;;;8.23;1.45;;;4.10;99.90;;;;;;5045853;28;20083;-61
2023/11/24 03:41:11;;;;;;;9.25;1.77;;;4.10;99.90;;;;;;5043877;28;20684;-60
2023/11/24 03:43:36;;;;;;;4.90;1.60;;;4.10;99.90;;;;;;5042876;28;20028;-59
2023/11/24 03:46:02;;;;;;;9.18;1.92;;;4.00;99.90;;;;;;5045135;28;20041;-59
2023/11/24 03:48:30;;;;;;;10.40;2.00;;;4.00;99.90;;;;;;5042124;28;20029;-60
2023/11/24 03:50:56;;;;;;;6.00;1.52;;;4.00;99.90;;;;;;5043224;28;20025;-61
2023/11/24 03:53:21;;;;;;;7.05;1.67;;;4.00;99.90;;;;;;5039535;28;20040;-60
2023/11/24 03:55:47;;;;;;;5.13;1.38;;;4.00;99.90;;;;;;5043314;28;20048;-61
2023/11/24 03:58:13;;;;;;;9.45;1.95;;;4.00;99.90;;;;;;5040604;28;20029;-62
2023/11/24 04:00:39;;;;;;;10.68;1.92;;;4.00;99.90;;;;;;5026149;28;20051;-61
2023/11/24 04:03:05;;;;;;;3.72;1.38;;;4.00;99.90;;;;;;5041827;28;20033;-61
2023/11/24 04:05:31;;;;;;;14.05;3.00;;;3.90;99.90;;;;;;5043760;28;20144;-58
2023/11/24 04:07:56;;;;;;;9.15;1.67;;;3.90;99.90;;;;;;5041865;28;20028;-59
2023/11/24 04:10:22;;;;;;;7.80;1.65;;;3.90;99.90;;;;;;5043210;28;20398;-61
2023/11/24 04:12:48;;;;;;;10.45;2.33;;;3.90;99.90;;;;;;5025263;28;20037;-60
2023/11/24 04:15:14;;;;;;;6.15;1.63;;;3.90;99.90;;;;;;5042909;28;20024;-61
2023/11/24 04:17:40;;;;;;;8.82;2.00;;;3.90;99.90;;;;;;5041643;28;20091;-60
2023/11/24 04:20:08;;;;;;;4.63;1.02;;;3.90;99.90;;;;;;5042490;28;20020;-60
2023/11/24 04:22:34;;;;;;;11.15;1.50;;;3.90;99.90;;;;;;5046522;28;20124;-58
2023/11/24 04:25:00;;;;;;;9.30;1.80;;;3.90;99.90;;;;;;5045679;28;20036;-60
2023/11/24 04:27:26;;;;;;;10.02;2.33;;;3.80;99.90;;;;;;5046279;28;20029;-60
2023/11/24 04:29:51;;;;;;;5.43;1.50;;;3.80;99.90;;;;;;5046688;28;20047;-60
2023/11/24 04:32:17;;;;;;;8.48;1.52;;;3.80;99.90;;;;;;5045376;28;20078;-59
2023/11/24 04:34:43;;;;;;;5.10;1.95;;;3.90;99.90;;;;;;5043298;28;20151;-60
2023/11/24 04:37:09;;;;;;;6.82;2.20;;;3.80;99.90;;;;;;5043978;28;20024;-59
2023/11/24 04:39:34;;;;;;;9.30;1.50;;;3.90;99.90;;;;;;5031273;28;20058;-59
2023/11/24 04:42:00;;;;;;;8.35;1.55;;;3.80;99.90;;;;;;5044126;28;20025;-57
2023/11/24 04:44:26;;;;;;;7.10;1.17;;;3.90;99.90;;;;;;5047484;28;20830;-57
2023/11/24 04:46:51;;;;;;;8.25;1.70;;;3.90;99.90;;;;;;5045758;28;20033;-59
2023/11/24 04:49:18;;;;;;;3.72;1.60;;;3.90;99.90;;;;;;5046404;28;20049;-59
2023/11/24 04:51:44;;;;;;;7.72;1.77;;;3.90;99.90;;;;;;5045543;28;20543;-59
2023/11/24 04:54:09;;;;;;;13.00;2.20;;;3.90;99.90;;;;;;5028526;28;20029;-59
2023/11/24 04:56:35;;;;;;;5.72;1.50;;;3.90;99.90;;;;;;5043114;28;20025;-60
2023/11/24 04:59:00;;;;;;;8.93;1.25;;;3.80;99.90;;;;;;5046369;28;20043;-59
2023/11/24 05:01:27;;;;;;;7.40;1.67;;;3.80;99.90;;;;;;5046354;28;21227;-59
2023/11/24 05:03:55;;;;;;;10.35;1.65;;;3.80;99.90;;;;;;5045621;28;20024;-58
2023/11/24 05:06:21;;;;;;;7.70;1.35;;;3.80;99.90;;;;;;5044446;28;20025;-60
2023/11/24 05:08:47;;;;;;;6.72;2.00;;;3.70;99.90;;;;;;5046212;28;20063;-59
2023/11/24 05:11:13;;;;;;;7.20;1.38;;;3.70;99.90;;;;;;5026109;28;20116;-60
2023/11/24 05:13:39;;;;;;;8.13;2.00;;;3.70;99.90;;;;;;5030434;28;20124;-58
2023/11/24 05:16:05;;;;;;;6.20;1.23;;;3.70;99.90;;;;;;5044511;28;20567;-58
2023/11/24 05:18:31;;;;;;;7.47;1.58;;;3.70;99.90;;;;;;5045190;28;20033;-59
2023/11/24 05:20:56;;;;;;;6.97;2.13;;;3.70;99.90;;;;;;5045446;28;20579;-59
2023/11/24 05:23:22;;;;;;;14.70;2.17;;;3.70;99.90;;;;;;5027319;28;20463;-59
2023/11/24 05:25:48;;;;;;;8.65;3.25;;;3.70;99.90;;;;;;5042928;28;20036;-57
2023/11/24 05:28:13;;;;;;;11.23;2.30;;;3.70;99.90;;;;;;5042606;28;20541;-57
2023/11/24 05:30:39;;;;;;;12.00;2.03;;;3.60;99.90;;;;;;5044277;28;20033;-59
2023/11/24 05:33:05;;;;;;;6.03;1.35;;;3.60;99.90;;;;;;5045016;28;20028;-58
2023/11/24 05:35:31;;;;;;;9.43;1.65;;;3.70;99.90;;;;;;5045050;28;20175;-59
2023/11/24 05:37:59;;;;;;;8.27;1.80;;;3.60;99.90;;;;;;5039534;28;20060;-59
2023/11/24 05:40:24;;;;;;;6.55;1.90;;;3.60;99.90;;;;;;5025078;28;20474;-56
2023/11/24 05:42:50;;;;;;;11.27;2.47;;;3.60;99.90;;;;;;5043106;28;20032;-56
2023/11/24 05:45:16;;;;;;;10.98;1.88;;;3.60;99.90;;;;;;5040947;28;20040;-59
2023/11/24 05:47:42;;;;;;;9.77;1.85;;;3.60;99.90;;;;;;5044725;28;20467;-59
2023/11/24 05:50:10;;;;;;;6.53;1.67;;;3.60;99.90;;;;;;5045660;28;20056;-62
2023/11/24 05:52:36;;;;;;;4.63;1.40;;;3.60;99.90;;;;;;5041612;28;20025;-59
2023/11/24 05:55:02;;;;;;;5.43;1.38;;;3.70;99.90;;;;;;5047253;28;20048;-60
2023/11/24 05:57:28;;;;;;;10.93;2.45;;;3.70;99.90;;;;;;5042336;28;20032;-60
2023/11/24 05:59:54;;;;;;;17.70;2.83;;;3.70;99.90;;;;;;5043311;28;20021;-60
2023/11/24 06:02:20;;;;;;;8.77;2.35;;;3.70;99.90;;;;;;5044125;28;20040;-60
2023/11/24 06:04:47;;;;;;;10.45;2.10;;;3.70;99.90;;;;;;5043189;28;20141;-59
2023/11/24 06:07:14;;;;;;;4.57;2.05;;;3.70;99.90;;;;;;5028638;28;20036;-57
2023/11/24 06:09:40;;;;;;;6.50;1.02;;;3.70;99.90;;;;;;5043771;28;20032;-60
2023/11/24 06:12:06;;;;;;;11.90;2.30;;;3.70;99.90;;;;;;5042866;28;20029;-60
2023/11/24 06:14:32;;;;;;;7.35;1.75;;;3.60;99.90;;;;;;5044920;28;20033;-59
2023/11/24 06:16:57;;;;;;;2.58;1.40;;;3.60;99.90;;;;;;5046116;28;20025;-58
2023/11/24 06:19:23;;;;;;;7.22;1.98;;;3.60;99.90;;;;;;5041397;28;20112;-58
2023/11/24 06:21:48;;;;;;;7.70;1.63;;;3.60;99.90;;;;;;5043063;28;20060;-59
2023/11/24 06:24:14;;;;;;;5.07;1.80;;;3.60;99.90;;;;;;5044440;28;20025;-58
2023/11/24 06:26:40;;;;;;;10.68;2.35;;;3.50;99.90;;;;;;5044243;28;20101;-59
2023/11/24 06:29:05;;;;;;;7.75;1.65;;;3.50;99.90;;;;;;5044207;28;20053;-58
2023/11/24 06:31:31;;;;;;;4.97;1.73;;;3.50;99.90;;;;;;5042897;28;20473;-59
2023/11/24 06:33:56;;;;;;;6.03;1.75;;;3.50;99.90;;;;;;5043433;28;20152;-58
2023/11/24 06:36:22;;;;;;;9.48;1.60;;;3.50;99.90;;;;;;5043685;28;20132;-60
2023/11/24 06:38:48;;;;;;;6.57;1.58;;;3.50;99.90;;;;;;5043435;28;20182;-58
2023/11/24 06:41:13;;;;;;;9.00;1.77;;;3.50;99.90;;;;;;5042883;28;20494;-59
2023/11/24 06:43:39;;;;;;;9.27;2.00;;;3.50;99.90;;;;;;5042751;28;20113;-59
2023/11/24 06:46:05;;;;;;;8.07;1.80;;;3.50;99.90;;;;;;5040310;28;20033;-60
2023/11/24 06:48:32;;;;;;;4.95;1.95;;;3.50;99.90;;;;;;5042478;28;20482;-58
2023/11/24 06:50:58;;;;;;;6.40;1.73;;;3.50;99.90;;;;;;5041757;28;20036;-54
2023/11/24 06:53:24;;;;;;;8.25;1.58;;;3.50;99.90;;;;;;5045591;28;20079;-59
2023/11/24 06:55:50;;;;;;;7.45;1.75;;;3.50;99.90;;;;;;5045577;28;20060;-58
2023/11/24 06:58:15;;;;;;;8.73;2.10;;;3.40;99.90;;;;;;5023247;28;20029;-58
2023/11/24 07:00:42;;;;;;;8.20;1.38;;;3.40;99.90;;;;;;5043471;28;20495;-60
2023/11/24 07:03:07;;;;;;;8.23;1.45;;;3.40;99.90;;;;;;5044004;28;20021;-59
2023/11/24 07:05:33;;;;;;;9.75;1.58;;;3.40;99.90;;;;;;5027967;28;20029;-59
2023/11/24 07:07:58;;;;;;;6.20;1.50;;;3.40;99.90;;;;;;5025690;28;20037;-59
2023/11/24 07:10:26;;;;;;;10.32;1.60;;;3.40;99.90;;;;;;5040871;28;20033;-60
2023/11/24 07:12:52;;;;;;;7.10;1.50;;;3.40;99.90;;;;;;5043489;28;20036;-58
2023/11/24 07:15:18;;;;;;;6.90;1.55;;;3.30;99.90;;;;;;5025767;28;20409;-59
2023/11/24 07:17:44;;;;;;;6.00;1.63;;;3.30;99.90;;;;;;5043469;28;20053;-58
2023/11/24 07:20:11;;;;;;;6.07;1.10;;;3.30;99.90;;;;;;5042353;28;20029;-58
2023/11/24 07:22:38;;;;;;;3.85;1.20;;;3.30;99.90;;;;;;5040847;28;20033;-59
2023/11/24 07:25:04;;;;;;;7.53;1.55;;;3.30;99.90;;;;;;5044460;28;20028;-59
2023/11/24 07:27:30;;;;;;;4.57;0.90;;;3.20;99.90;;;;;;5043386;28;20504;-56
2023/11/24 07:29:55;;;;;;;6.85;1.05;;;3.20;99.90;;;;;;5041643;28;20057;-60
2023/11/24 07:32:24;;;;;;;6.30;1.45;;;3.10;99.90;;;;;;5036882;28;20167;-60
2023/11/24 07:34:50;;;;;;;8.50;1.30;;;3.10;99.90;;;;;;5043155;28;20052;-57
2023/11/24 07:37:16;;;;;;;3.90;0.90;;;3.10;99.90;;;;;;5027176;28;20417;-59
2023/11/24 07:39:41;;;;;;;6.75;1.48;;;3.00;99.90;;;;;;5041244;28;20404;-59
2023/11/24 07:42:07;;;;;;;9.77;1.48;;;3.00;99.90;;;;;;5043559;28;20556;-58
2023/11/24 07:44:33;;;;;;;4.80;1.05;;;2.90;99.90;;;;;;5041035;28;20029;-58
2023/11/24 07:46:59;;;;;;;5.13;1.08;;;2.90;99.90;;;;;;5041488;28;20102;-59
2023/11/24 07:49:24;;;;;;;5.35;0.98;;;2.90;99.90;;;;;;5041905;28;20033;-59
2023/11/24 07:51:51;;;;;;;4.97;1.52;;;2.90;99.90;;;;;;5041969;28;20025;-60
2023/11/24 07:54:17;;;;;;;5.90;1.48;;;2.80;99.90;;;;;;5039100;28;20021;-59
2023/11/24 07:56:42;;;;;;;8.93;1.58;;;2.80;99.90;;;;;;5039049;28;20079;-57
2023/11/24 07:59:15;;;;;;;7.10;1.38;;;2.80;99.90;;;;;;5038512;28;20075;-60
2023/11/24 08:01:41;;;;;;;5.50;1.25;;;2.80;99.90;;;;;;5043194;28;20029;-58
2023/11/24 08:04:07;;;;;;;4.03;1.75;;;2.80;99.90;;;;;;5038107;28;20103;-58
2023/11/24 08:06:33;;;;;;;11.00;1.98;;;2.80;99.90;;;;;;5040904;28;20032;-59
2023/11/24 08:09:03;;;;;;;8.98;1.80;;;2.80;99.90;;;;;;5042036;28;20090;-58
2023/11/24 08:11:30;;;;;;;3.88;1.45;;;2.80;99.90;;;;;;5042540;28;20456;-60
2023/11/24 08:13:56;;;;;;;7.15;1.40;;;2.90;99.90;;;;;;5041452;28;20029;-59
2023/11/24 08:16:23;;;;;;;6.78;1.52;;;2.90;99.90;;;;;;5042844;28;20017;-60
2023/11/24 08:18:52;;;;;;;7.35;1.33;;;2.90;99.90;;;;;;5036347;28;20496;-58
2023/11/24 08:21:18;;;;;;;8.50;1.35;;;2.90;99.90;;;;;;5042360;28;20044;-59
2023/11/24 08:23:45;;;;;;;7.00;1.20;;;2.90;99.90;;;;;;5040527;28;20484;-59
2023/11/24 08:26:17;;;;;;;3.28;1.45;;;3.00;99.90;;;;;;5041194;28;20033;-60
2023/11/24 08:28:44;;;;;;;3.70;1.08;;;3.10;99.90;;;;;;5044448;28;20033;-58
2023/11/24 08:31:15;;;;;;;6.30;1.23;;;3.20;99.90;;;;;;5039408;28;20075;-57
2023/11/24 08:33:41;;;;;;;10.55;2.13;;;3.20;99.90;;;;;;5040760;28;20049;-60
2023/11/24 08:36:07;;;;;;;3.22;1.10;;;3.30;99.90;;;;;;5041024;28;20064;-59
2023/11/24 08:38:32;;;;;;;5.57;1.10;;;3.30;99.90;;;;;;5042974;28;20057;-60
2023/11/24 08:40:58;;;;;;;4.57;1.20;;;3.30;99.90;;;;;;5039570;28;20477;-60
2023/11/24 08:43:23;;;;;;;4.75;0.93;;;3.40;99.90;;;;;;5041169;28;20031;-59
2023/11/24 08:45:49;;;;;;;6.47;1.58;;;3.40;99.90;;;;;;5038643;28;20037;-59
2023/11/24 08:48:14;;;;;;;5.43;1.02;;;3.50;99.90;;;;;;5041368;28;20369;-59
2023/11/24 08:50:40;;;;;;;10.05;1.25;;;3.50;99.90;;;;;;5041144;28;20230;-58
2023/11/24 08:53:06;;;;;;;4.53;0.82;;;3.60;99.90;;;;;;5040128;28;20092;-60
2023/11/24 08:55:32;;;;;;;2.53;0.75;;;3.70;99.90;;;;;;5022762;28;20484;-61
2023/11/24 08:58:00;;;;;;;5.60;1.30;;;3.70;99.90;;;;;;5024440;28;20021;-60
2023/11/24 09:00:29;;;;;;;5.80;1.27;;;3.70;99.90;;;;;;5040030;28;20033;-60
2023/11/24 09:02:57;;;;;;;11.60;1.58;;;3.70;99.90;;;;;;5040774;28;20025;-60
2023/11/24 09:05:23;;;;;;;5.53;1.40;;;3.70;99.90;;;;;;5038275;28;20478;-59
2023/11/24 09:07:48;;;;;;;3.10;1.42;;;3.70;99.90;;;;;;5043767;28;20437;-61
2023/11/24 09:10:14;;;;;;;2.50;1.13;;;3.70;99.90;;;;;;5024458;28;20483;-59
2023/11/24 09:12:40;;;;;;;4.43;1.10;;;3.60;99.90;;;;;;5046980;28;20037;-58
2023/11/24 09:15:06;;;;;;;10.52;1.15;;;3.50;99.90;;;;;;5039912;28;20115;-59
2023/11/24 09:17:35;;;;;;;2.58;1.20;;;3.50;99.90;;;;;;5043890;28;20025;-59
2023/11/24 09:20:00;;;;;;;4.13;1.17;;;3.40;99.90;;;;;;5045165;28;20051;-58
2023/11/24 09:22:27;;;;;;;6.25;1.50;;;3.50;99.90;;;;;;5043930;28;20357;-57
2023/11/24 09:24:52;;;;;;;3.22;1.30;;;3.60;99.90;;;;;;5041128;28;20029;-57
2023/11/24 09:27:21;;;;;;;7.40;1.88;;;3.70;99.90;;;;;;5037900;28;20550;-57
2023/11/24 09:29:47;;;;;;;6.00;1.50;;;3.80;99.90;;;;;;5045071;28;20025;-58
2023/11/24 09:32:12;;;;;;;6.45;1.55;;;3.80;99.90;;;;;;5042092;28;20025;-55
2023/11/24 09:34:38;;;;;;;12.13;1.42;;;3.90;99.90;;;;;;5040848;28;20614;-57
2023/11/24 09:37:05;;;;;;;4.60;1.73;;;4.00;99.90;;;;;;5044818;28;20102;-57
2023/11/24 09:39:30;;;;;;;4.60;2.03;;;4.00;99.90;;;;;;5044523;28;20397;-56
2023/11/24 09:41:56;;;;;;;8.52;1.45;;;4.10;99.90;;;;;;5044461;28;20040;-58
2023/11/24 09:44:23;;;;;;;8.68;1.73;;;4.00;99.90;;;;;;5041913;28;20025;-59
2023/11/24 09:46:51;;;;;;;4.25;1.30;;;4.10;99.90;;;;;;5042647;28;20029;-57
2023/11/24 09:49:16;;;;;;;3.85;1.67;;;4.00;99.90;;;;;;5041608;28;20436;-59
2023/11/24 09:51:42;;;;;;;4.85;1.17;;;3.90;99.90;;;;;;5046150;28;20099;-60
2023/11/24 09:54:09;;;;;;;8.32;1.70;;;3.80;99.90;;;;;;5043001;28;20112;-60
2023/11/24 09:56:35;;;;;;;7.78;2.10;;;3.70;99.90;;;;;;5044879;28;20041;-60
2023/11/24 09:59:08;;;;;;;2.42;1.05;;;3.60;99.90;;;;;;5043197;28;20036;-58
2023/11/24 10:01:37;;;;;;;4.50;1.42;;;3.50;99.90;;;;;;5045265;28;20025;-58
2023/11/24 10:04:05;;;;;;;4.05;1.20;;;3.40;99.90;;;;;;5046327;28;20017;-59
2023/11/24 10:06:34;;;;;;;2.85;1.10;;;3.40;99.90;;;;;;5025489;28;20040;-60
2023/11/24 10:09:05;;;;;;;5.57;1.45;;;3.30;99.90;;;;;;5045262;28;20124;-58
2023/11/24 10:11:33;;;;;;;4.97;1.17;;;3.40;99.90;;;;;;5042617;28;20025;-59
2023/11/24 10:13:59;;;;;;;8.38;1.55;;;3.50;99.90;;;;;;5045194;28;20031;-59
2023/11/24 10:16:25;;;;;;;5.82;1.48;;;3.60;99.90;;;;;;5044533;28;20159;-60
2023/11/24 10:18:54;;;;;;;4.00;1.45;;;3.60;99.90;;;;;;5043149;28;20032;-58
2023/11/24 10:21:21;;;;;;;2.53;1.13;;;3.80;99.90;;;;;;5040711;28;20105;-61
2023/11/24 10:23:48;;;;;;;3.67;1.45;;;3.80;99.90;;;;;;5043819;28;20104;-57
2023/11/24 10:26:18;;;;;;;6.70;1.50;;;3.80;99.90;;;;;;5025855;28;20029;-60
2023/11/24 10:28:46;;;;;;;6.00;1.90;;;3.90;99.90;;;;;;5044264;28;20082;-58
2023/11/24 10:31:13;;;;;;;6.75;0.95;;;3.90;99.90;;;;;;5043157;28;20029;-57
2023/11/24 10:33:42;;;;;;;11.60;1.90;;;3.80;99.90;;;;;;5043388;28;20025;-57
2023/11/24 10:36:09;;;;;;;7.13;1.40;;;3.90;99.90;;;;;;5044963;28;20021;-57
2023/11/24 10:38:39;;;;;;;3.97;1.00;;;3.80;99.90;;;;;;5041881;28;20121;-56
2023/11/24 10:41:11;;;;;;;11.20;1.45;;;3.80;99.90;;;;;;5045406;28;20031;-58
2023/11/24 10:43:38;;;;;;;5.50;1.52;;;3.70;99.90;;;;;;5027063;28;20018;-57
2023/11/24 10:46:08;;;;;;;3.38;0.93;;;3.80;99.90;;;;;;5026000;28;20806;-60
2023/11/24 10:48:41;;;;;;;2.42;1.23;;;3.80;99.90;;;;;;5044282;28;20029;-59
2023/11/24 10:51:40;;;;;;;7.35;1.73;;;3.90;99.90;;;;;;5026946;28;20029;-60
2023/11/24 10:54:07;;;;;;;3.80;1.27;;;4.00;99.90;;;;;;5016056;28;20045;-58
2023/11/24 10:56:36;;;;;;;1.58;0.77;;;4.10;99.90;;;;;;5021956;28;20039;-59
2023/11/24 10:59:09;;;;;;;3.20;0.93;;;4.10;99.90;;;;;;5043680;28;20025;-58
2023/11/24 11:01:34;;;;;;;3.28;0.70;;;4.10;99.90;;;;;;5026687;28;20571;-59
2023/11/24 11:04:01;;;;;;;5.43;1.30;;;4.10;99.90;;;;;;5044590;28;20017;-59
2023/11/24 11:06:52;;;;;;;6.20;1.25;;;4.20;99.90;;;;;;5041823;28;20040;-57
2023/11/24 11:09:29;;;;;;;6.07;1.05;;;4.20;99.90;;;;;;5038588;28;20016;-59
2023/11/24 11:12:13;;;;;;;6.68;1.77;;;4.20;99.90;;;;;;5043953;28;20036;-58
2023/11/24 11:14:40;;;;;;;6.22;1.67;;;4.10;99.90;;;;;;5039637;28;20098;-58
2023/11/24 11:17:20;;;;;;;2.38;0.65;;;4.10;99.90;;;;;;5027811;28;20485;-57
2023/11/24 11:20:06;;;;;;;1.92;0.63;;;4.00;99.90;;;;;;4967241;28;20025;-60
2023/11/24 11:22:36;;;;;;;3.03;1.00;;;3.90;99.90;;;;;;4984859;28;20098;-57
2023/11/24 11:25:23;;;;;;;2.53;0.88;;;4.00;99.90;;;;;;4948807;28;20124;-59
2023/11/24 11:27:49;;;;;;;;;;;4.00;99.90;;;;;;4932307;28;20024;-61
2023/11/24 11:30:18;;;;;;;1.87;0.77;;;3.90;99.90;;;;;;4932101;28;20583;-60
2023/11/24 11:32:44;;;;;;;5.00;1.15;;;3.80;99.90;;;;;;4952070;28;21969;-60
2023/11/24 11:35:12;;;;;;;3.15;0.80;;;3.90;99.90;;;;;;4985663;28;20163;-60
2023/11/24 11:37:41;;;;;;;3.95;0.65;;;3.90;99.90;;;;;;4972264;28;20033;-62
2023/11/24 11:40:14;;;;;;;4.70;1.30;;;3.90;99.90;;;;;;4957464;28;20025;-60
2023/11/24 11:42:52;;;;;;;3.45;1.20;;;4.00;99.90;;;;;;4923611;28;20040;-59
2023/11/24 11:45:20;;;;;;;3.97;1.48;;;4.10;99.90;;;;;;4923003;28;20099;-60
2023/11/24 11:47:51;;;;;;;2.83;1.13;;;4.10;99.90;;;;;;4922828;28;20821;-57
2023/11/24 11:50:20;;;;;;;2.78;0.65;;;4.10;99.90;;;;;;4984674;28;20504;-61
2023/11/24 11:52:47;;;;;;;1.75;0.73;;;3.90;99.90;;;;;;4945684;28;20498;-62
2023/11/24 11:55:13;;;;;;;3.20;0.43;;;3.80;99.90;;;;;;4977880;28;20028;-60
2023/11/24 11:57:39;;;;;;;2.40;0.80;;;3.80;99.90;;;;;;4916492;28;20040;-59
2023/11/24 12:00:09;;;;;;;2.55;0.70;;;3.80;99.90;;;;;;4983976;28;20126;-57
2023/11/24 12:02:34;;;;;;;4.78;0.90;;;3.70;99.90;;;;;;4995546;28;20032;-57
2023/11/24 12:05:00;;;;;;;3.25;1.00;;;3.80;99.90;;;;;;4974629;28;21371;-60
2023/11/24 12:07:26;;;;;;;4.60;1.52;;;3.80;99.90;;;;;;5034210;28;20041;-59
2023/11/24 12:09:51;;;;;;;3.08;0.85;;;3.80;99.90;;;;;;4963291;28;20122;-60
2023/11/24 12:12:19;;;;;;;4.68;1.15;;;3.80;99.90;;;;;;5001190;28;20032;-59
2023/11/24 12:14:48;;;;;;;1.80;0.80;;;3.70;99.90;;;;;;4955403;28;20515;-60
2023/11/24 12:17:13;;;;;;;5.00;1.38;;;3.70;99.90;;;;;;4968395;28;20602;-58
2023/11/24 12:19:40;;;;;;;6.05;1.20;;;3.60;99.90;;;;;;5006055;28;20029;-62
2023/11/24 12:22:06;;;;;;;2.72;0.90;;;3.60;99.90;;;;;;4994464;28;20018;-60
2023/11/24 12:24:36;;;;;;;3.83;0.95;;;3.60;99.90;;;;;;4945037;28;20485;-59
2023/11/24 12:27:03;;;;;;;2.15;0.70;;;3.50;99.90;;;;;;4972824;28;20021;-57
2023/11/24 12:29:29;;;;;;;2.42;0.73;;;3.60;99.90;;;;;;4959056;28;20029;-62
2023/11/24 12:31:54;;;;;;;3.75;1.00;;;3.60;99.90;;;;;;4962464;28;20114;-59
2023/11/24 12:34:27;;;;;;;4.07;1.45;;;3.60;99.90;;;;;;5028864;28;20473;-58
2023/11/24 12:36:56;;;;;;;3.67;1.33;;;3.60;99.90;;;;;;4944750;28;20032;-57
2023/11/24 12:39:30;;;;;;;5.65;1.20;;;3.60;99.90;;;;;;4954602;28;20017;-59
2023/11/24 12:41:57;;;;;;;3.20;1.52;;;3.60;99.90;;;;;;4950714;28;20056;-58
2023/11/24 12:44:26;;;;;;;4.15;0.95;;;3.60;99.90;;;;;;4961331;28;20553;-58
2023/11/24 12:47:13;;;;;;;4.95;0.93;;;3.60;99.90;;;;;;4946940;28;20029;-57
2023/11/24 12:50:01;;;;;;;3.92;1.10;;;3.60;99.90;;;;;;4987056;28;20032;-62
2023/11/24 12:52:31;;;;;;;1.60;0.73;;;3.50;99.90;;;;;;5011828;28;20041;-57
2023/11/24 12:54:57;;;;;;;4.30;1.10;;;3.60;99.90;;;;;;5000533;28;20028;-61